Time;durP1;ratioP1;P1;durP2;ratioP2;P2;SDS_P1;SDS_P2;PMS_P1;PMS_P2;Temp;Humidity;BMP_temperature;BMP_pressure;BME280_temperature;BME280_humidity;BME280_pressure;Samples;Min_cycle;Max_cycle;Signal;HPM_P1;HPM_P2
2024/03/03 00:02:11;;;;;;;22.60;21.00;;;;;;;;;;4979229;28;20458;-83
2024/03/03 00:04:38;;;;;;;20.57;19.17;;;;;;;;;;4979433;28;20474;-84
2024/03/03 00:07:06;;;;;;;23.60;21.70;;;;;;;;;;4978890;28;20513;-84
2024/03/03 00:09:33;;;;;;;24.47;22.30;;;;;;;;;;4979334;28;20443;-82
2024/03/03 00:12:01;;;;;;;24.23;22.50;;;;;;;;;;4978662;28;20438;-83
2024/03/03 00:14:28;;;;;;;22.20;20.57;;;;;;;;;;4981966;28;20490;-84
2024/03/03 00:16:56;;;;;;;22.70;20.83;;;;;;;;;;4996660;28;20424;-84
2024/03/03 00:19:24;;;;;;;23.63;21.77;;;;;;;;;;4986619;28;20473;-82
2024/03/03 00:21:51;;;;;;;24.00;22.07;;;;;;;;;;4982614;28;20549;-83
2024/03/03 00:24:18;;;;;;;23.30;21.50;;;;;;;;;;4993527;28;20955;-84
2024/03/03 00:26:45;;;;;;;23.03;20.93;;;;;;;;;;5003586;28;20449;-84
2024/03/03 00:29:14;;;;;;;21.10;19.60;;;;;;;;;;5002014;28;20480;-84
2024/03/03 00:31:43;;;;;;;22.63;21.13;;;;;;;;;;5001275;28;20416;-84
2024/03/03 00:34:10;;;;;;;22.00;20.57;;;;;;;;;;5002160;28;20475;-84
2024/03/03 00:36:37;;;;;;;22.77;21.17;;;;;;;;;;5002906;28;20440;-83
2024/03/03 00:39:05;;;;;;;22.73;21.13;;;;;;;;;;5001026;28;20469;-83
2024/03/03 00:41:32;;;;;;;21.97;20.47;;;;;;;;;;5001092;28;20504;-83
2024/03/03 00:43:59;;;;;;;23.03;21.53;;;;;;;;;;5006999;28;20529;-84
2024/03/03 00:46:27;;;;;;;23.57;21.87;;;;;;;;;;5014456;28;20484;-83
2024/03/03 00:48:54;;;;;;;23.60;22.00;;;;;;;;;;5008916;28;20564;-83
2024/03/03 00:51:21;;;;;;;23.20;21.60;;;;;;;;;;4991702;28;20469;-84
2024/03/03 00:53:48;;;;;;;22.47;20.87;;;;;;;;;;5001730;28;20461;-83
2024/03/03 00:56:15;;;;;;;22.73;21.03;;;;;;;;;;4995831;28;21006;-84
2024/03/03 00:58:42;;;;;;;21.97;20.43;;;;;;;;;;4982268;28;20477;-83
2024/03/03 01:01:12;;;;;;;23.30;21.70;;;;;;;;;;4981624;28;20442;-82
2024/03/03 01:03:41;;;;;;;24.20;22.40;;;;;;;;;;4982165;28;20485;-83
2024/03/03 01:06:08;;;;;;;23.10;21.50;;;;;;;;;;4981344;28;20454;-82
2024/03/03 01:08:35;;;;;;;23.93;22.13;;;;;;;;;;4999371;28;20501;-82
2024/03/03 01:11:02;;;;;;;22.37;20.87;;;;;;;;;;4999605;28;20454;-83
2024/03/03 01:13:29;;;;;;;24.90;22.93;;;;;;;;;;5000799;28;20481;-82
2024/03/03 01:15:56;;;;;;;22.10;20.40;;;;;;;;;;5001159;28;20457;-84
2024/03/03 01:18:23;;;;;;;22.57;20.77;;;;;;;;;;5001062;28;20503;-83
2024/03/03 01:20:51;;;;;;;22.70;21.20;;;;;;;;;;4965794;28;20460;-83
2024/03/03 01:23:18;;;;;;;23.77;22.17;;;;;;;;;;4981034;28;20470;-83
2024/03/03 01:25:46;;;;;;;23.97;22.30;;;;;;;;;;4981381;28;20481;-83
2024/03/03 01:28:13;;;;;;;23.40;21.60;;;;;;;;;;4981845;28;20478;-83
2024/03/03 01:30:40;;;;;;;22.73;21.03;;;;;;;;;;4980289;28;20458;-82
2024/03/03 01:33:07;;;;;;;23.53;21.73;;;;;;;;;;4998678;28;20453;-82
2024/03/03 01:35:34;;;;;;;23.63;21.57;;;;;;;;;;5000907;28;20930;-83
2024/03/03 01:38:02;;;;;;;23.23;21.52;;;;;;;;;;5000731;28;20449;-84
2024/03/03 01:40:29;;;;;;;21.50;20.10;;;;;;;;;;5000534;28;20246;-83
2024/03/03 01:42:56;;;;;;;22.33;20.73;;;;;;;;;;5000376;28;20442;-83
2024/03/03 01:45:26;;;;;;;22.40;20.70;;;;;;;;;;5000767;28;20457;-83
2024/03/03 01:47:54;;;;;;;22.73;21.23;;;;;;;;;;5000403;28;20474;-83
2024/03/03 01:50:21;;;;;;;22.95;21.35;;;;;;;;;;4999639;28;20465;-81
2024/03/03 01:52:49;;;;;;;23.23;21.50;;;;;;;;;;4998911;28;20214;-83
2024/03/03 01:55:18;;;;;;;22.10;20.47;;;;;;;;;;4981518;28;20471;-82
2024/03/03 01:57:46;;;;;;;23.75;22.02;;;;;;;;;;4983334;28;20508;-83
2024/03/03 02:00:13;;;;;;;23.43;21.43;;;;;;;;;;5001715;28;20241;-83
2024/03/03 02:02:41;;;;;;;22.17;20.40;;;;;;;;;;5000699;28;21015;-83
2024/03/03 02:05:08;;;;;;;21.53;19.93;;;;;;;;;;4992467;28;20230;-83
2024/03/03 02:07:35;;;;;;;22.53;20.93;;;;;;;;;;4981063;28;20454;-84
2024/03/03 02:10:07;;;;;;;21.53;20.03;;;;;;;;;;4981278;28;20453;-81
2024/03/03 02:12:35;;;;;;;22.80;20.93;;;;;;;;;;4980544;28;20486;-83
2024/03/03 02:15:02;;;;;;;21.57;19.97;;;;;;;;;;4981186;28;20466;-83
2024/03/03 02:17:30;;;;;;;21.40;19.80;;;;;;;;;;4982674;28;20458;-83
2024/03/03 02:19:57;;;;;;;22.40;20.90;;;;;;;;;;4981189;28;20485;-81
2024/03/03 02:22:25;;;;;;;22.33;20.83;;;;;;;;;;4980163;28;20434;-82
2024/03/03 02:24:52;;;;;;;22.23;20.60;;;;;;;;;;4980456;28;20528;-83
2024/03/03 02:27:19;;;;;;;21.40;19.88;;;;;;;;;;4993853;28;20445;-83
2024/03/03 02:29:46;;;;;;;21.00;19.60;;;;;;;;;;4998987;28;20234;-83
2024/03/03 02:32:13;;;;;;;20.25;18.95;;;;;;;;;;4998991;28;20496;-82
2024/03/03 02:34:40;;;;;;;21.47;19.83;;;;;;;;;;4999780;28;20285;-83
2024/03/03 02:37:07;;;;;;;21.67;19.97;;;;;;;;;;4998521;28;20434;-84
2024/03/03 02:39:36;;;;;;;20.60;19.30;;;;;;;;;;4999907;28;20449;-83
2024/03/03 02:42:03;;;;;;;20.27;19.05;;;;;;;;;;4999277;28;20424;-83
2024/03/03 02:44:30;;;;;;;20.40;19.10;;;;;;;;;;4999655;28;20702;-84
2024/03/03 02:46:57;;;;;;;19.83;18.43;;;;;;;;;;4999421;28;20461;-82
2024/03/03 02:49:24;;;;;;;20.60;19.30;;;;;;;;;;4993787;28;20485;-82
2024/03/03 02:51:51;;;;;;;20.87;19.47;;;;;;;;;;4997253;28;20462;-82
2024/03/03 02:54:18;;;;;;;20.23;18.80;;;;;;;;;;4982009;28;20461;-83
2024/03/03 02:56:46;;;;;;;22.83;20.93;;;;;;;;;;4989043;28;20458;-82
2024/03/03 02:59:14;;;;;;;20.73;19.20;;;;;;;;;;4979381;28;20456;-84
2024/03/03 03:01:41;;;;;;;20.27;18.80;;;;;;;;;;4992080;28;20556;-82
2024/03/03 03:04:08;;;;;;;20.90;19.50;;;;;;;;;;4985856;28;20473;-83
2024/03/03 03:06:35;;;;;;;20.60;19.23;;;;;;;;;;4979674;28;20474;-82
2024/03/03 03:09:02;;;;;;;20.43;18.90;;;;;;;;;;4979467;28;20505;-82
2024/03/03 03:11:29;;;;;;;20.43;19.13;;;;;;;;;;4979615;28;20493;-83
2024/03/03 03:13:58;;;;;;;20.77;19.07;;;;;;;;;;4980260;28;21115;-83
2024/03/03 03:16:25;;;;;;;20.73;19.43;;;;;;;;;;4980139;28;20493;-84
2024/03/03 03:21:55;;;;;;;19.90;18.23;;;;;;;;;;4977075;28;20453;-82
2024/03/03 03:24:23;;;;;;;21.80;20.17;;;;;;;;;;4966983;28;21054;-83
2024/03/03 03:26:50;;;;;;;20.77;19.40;;;;;;;;;;4975718;28;20468;-83
2024/03/03 03:29:18;;;;;;;21.60;19.90;;;;;;;;;;4979475;28;20540;-83
2024/03/03 03:31:45;;;;;;;21.00;19.40;;;;;;;;;;4978979;28;20443;-82
2024/03/03 03:34:12;;;;;;;19.83;18.57;;;;;;;;;;4976497;28;20491;-83
2024/03/03 03:36:39;;;;;;;20.90;19.57;;;;;;;;;;4967548;28;20446;-83
2024/03/03 03:39:12;;;;;;;19.67;18.43;;;;;;;;;;4978836;28;21017;-84
2024/03/03 03:41:43;;;;;;;20.20;18.90;;;;;;;;;;4978607;28;20485;-83
2024/03/03 03:44:10;;;;;;;19.77;18.50;;;;;;;;;;4963394;28;20483;-83
2024/03/03 03:46:39;;;;;;;20.27;18.97;;;;;;;;;;4960142;29;20443;-83
2024/03/03 03:49:06;;;;;;;20.37;19.00;;;;;;;;;;4995199;28;20460;-84
2024/03/03 03:51:33;;;;;;;19.60;18.40;;;;;;;;;;5001916;28;20484;-84
2024/03/03 03:54:00;;;;;;;19.20;18.00;;;;;;;;;;5002335;28;20474;-81
2024/03/03 03:56:27;;;;;;;19.53;18.30;;;;;;;;;;5002887;28;20502;-82
2024/03/03 03:58:54;;;;;;;19.10;17.90;;;;;;;;;;5002940;28;20445;-83
2024/03/03 04:01:21;;;;;;;19.70;18.50;;;;;;;;;;5001746;28;20956;-83
2024/03/03 04:03:49;;;;;;;19.07;17.93;;;;;;;;;;5001678;28;20477;-83
2024/03/03 04:06:16;;;;;;;19.27;17.90;;;;;;;;;;4963481;29;20454;-83
2024/03/03 04:08:43;;;;;;;19.67;18.47;;;;;;;;;;4963013;29;20992;-83
2024/03/03 04:11:11;;;;;;;19.10;17.90;;;;;;;;;;4966952;29;20436;-83
2024/03/03 04:13:38;;;;;;;19.13;18.03;;;;;;;;;;4976647;28;20475;-82
2024/03/03 04:16:06;;;;;;;20.80;19.20;;;;;;;;;;4976677;29;20443;-83
2024/03/03 04:18:33;;;;;;;19.50;18.23;;;;;;;;;;4969496;29;20513;-83
2024/03/03 04:21:02;;;;;;;18.77;17.67;;;;;;;;;;4963279;29;20797;-83
2024/03/03 04:23:29;;;;;;;20.10;18.80;;;;;;;;;;4963300;28;20441;-82
2024/03/03 04:25:56;;;;;;;21.73;20.20;;;;;;;;;;4964493;29;20517;-84
2024/03/03 04:28:23;;;;;;;21.47;20.07;;;;;;;;;;4969383;28;20455;-83
2024/03/03 04:30:50;;;;;;;20.70;19.20;;;;;;;;;;4969584;28;20462;-84
2024/03/03 04:33:17;;;;;;;19.80;18.60;;;;;;;;;;4983009;28;20501;-83
2024/03/03 04:35:44;;;;;;;19.40;18.10;;;;;;;;;;4968056;28;20486;-83
2024/03/03 04:38:12;;;;;;;22.83;20.60;;;;;;;;;;4963585;29;20459;-81
2024/03/03 04:40:43;;;;;;;21.40;19.83;;;;;;;;;;4962742;29;20447;-82
2024/03/03 04:43:10;;;;;;;21.40;20.03;;;;;;;;;;4962971;28;20523;-84
2024/03/03 04:45:38;;;;;;;21.13;19.63;;;;;;;;;;4962586;29;20877;-83
2024/03/03 04:48:05;;;;;;;20.17;18.97;;;;;;;;;;4963089;29;20442;-83
2024/03/03 04:50:32;;;;;;;21.70;20.20;;;;;;;;;;4962839;29;20530;-82
2024/03/03 04:52:58;;;;;;;20.97;19.50;;;;;;;;;;4962622;28;20483;-83
2024/03/03 04:55:27;;;;;;;21.53;20.03;;;;;;;;;;4963289;29;20483;-83
2024/03/03 04:57:54;;;;;;;21.50;19.90;;;;;;;;;;4962954;28;20506;-83
2024/03/03 05:00:21;;;;;;;22.70;20.80;;;;;;;;;;4961722;28;20467;-83
2024/03/03 05:02:49;;;;;;;21.70;20.20;;;;;;;;;;4962214;29;20447;-83
2024/03/03 05:05:15;;;;;;;22.73;21.13;;;;;;;;;;4963484;28;20461;-82
2024/03/03 05:07:42;;;;;;;22.97;21.17;;;;;;;;;;4967078;28;20450;-83
2024/03/03 05:10:10;;;;;;;23.73;22.03;;;;;;;;;;4981628;28;20486;-83
2024/03/03 05:12:38;;;;;;;22.20;20.80;;;;;;;;;;4980696;28;20442;-83
2024/03/03 05:15:06;;;;;;;22.98;21.42;;;;;;;;;;4966805;28;20478;-83
2024/03/03 05:17:33;;;;;;;23.88;22.20;;;;;;;;;;4962706;29;20294;-83
2024/03/03 05:20:02;;;;;;;23.27;21.27;;;;;;;;;;4962070;29;20266;-83
2024/03/03 05:22:29;;;;;;;24.30;22.57;;;;;;;;;;4961206;29;20216;-83
2024/03/03 05:24:56;;;;;;;24.05;22.25;;;;;;;;;;4961752;28;20482;-83
2024/03/03 05:27:23;;;;;;;25.30;23.40;;;;;;;;;;4978577;28;20707;-83
2024/03/03 05:29:52;;;;;;;24.17;22.47;;;;;;;;;;4961449;29;20227;-82
2024/03/03 05:32:19;;;;;;;22.98;21.38;;;;;;;;;;4961149;29;20479;-82
2024/03/03 05:34:46;;;;;;;22.93;21.33;;;;;;;;;;4961964;28;20220;-81
2024/03/03 05:37:13;;;;;;;24.67;22.77;;;;;;;;;;4961801;29;20441;-83
2024/03/03 05:39:40;;;;;;;25.85;23.85;;;;;;;;;;4961544;29;20207;-83
2024/03/03 05:42:07;;;;;;;26.45;24.15;;;;;;;;;;4960656;29;20242;-82
2024/03/03 05:44:34;;;;;;;28.63;26.10;;;;;;;;;;4962570;28;20220;-83
2024/03/03 05:47:03;;;;;;;28.83;25.98;;;;;;;;;;4962011;29;20200;-83
2024/03/03 05:49:30;;;;;;;29.57;26.80;;;;;;;;;;4962780;29;20230;-83
2024/03/03 05:51:57;;;;;;;30.13;27.52;;;;;;;;;;4961365;29;20470;-81
2024/03/03 05:54:24;;;;;;;28.73;26.17;;;;;;;;;;4961642;28;20267;-83
2024/03/03 05:56:51;;;;;;;27.67;25.48;;;;;;;;;;4961746;28;20200;-83
2024/03/03 05:59:18;;;;;;;28.95;26.55;;;;;;;;;;4965584;28;20211;-83
2024/03/03 06:01:48;;;;;;;29.83;27.33;;;;;;;;;;4975242;28;20219;-81
2024/03/03 06:04:16;;;;;;;30.58;27.95;;;;;;;;;;4980407;28;20516;-81
2024/03/03 06:06:43;;;;;;;29.87;27.47;;;;;;;;;;4980281;28;20274;-84
2024/03/03 06:09:12;;;;;;;28.08;25.98;;;;;;;;;;4980327;28;20486;-83
2024/03/03 06:11:40;;;;;;;29.77;27.15;;;;;;;;;;4981095;28;20661;-83
2024/03/03 06:14:08;;;;;;;29.75;27.25;;;;;;;;;;4980553;28;20231;-83
2024/03/03 06:16:36;;;;;;;29.23;26.75;;;;;;;;;;4980102;28;20223;-82
2024/03/03 06:19:03;;;;;;;28.80;26.25;;;;;;;;;;4980301;28;20245;-83
2024/03/03 06:21:32;;;;;;;27.60;25.20;;;;;;;;;;4979631;28;20207;-83
2024/03/03 06:23:59;;;;;;;28.02;25.67;;;;;;;;;;4980581;28;20294;-82
2024/03/03 06:26:28;;;;;;;26.30;24.25;;;;;;;;;;4980381;28;20746;-82
2024/03/03 06:28:55;;;;;;;27.92;25.42;;;;;;;;;;4981287;28;20246;-83
2024/03/03 06:31:22;;;;;;;29.15;26.75;;;;;;;;;;4960114;29;20311;-83
2024/03/03 06:33:49;;;;;;;28.25;25.90;;;;;;;;;;4973856;28;20235;-81
2024/03/03 06:36:17;;;;;;;28.92;26.33;;;;;;;;;;4977936;28;20198;-79
2024/03/03 06:38:46;;;;;;;29.57;26.67;;;;;;;;;;4973853;28;20294;-80
2024/03/03 06:41:13;;;;;;;28.10;25.90;;;;;;;;;;4976351;28;20939;-79
2024/03/03 06:43:40;;;;;;;28.17;25.85;;;;;;;;;;4976839;28;20227;-78
2024/03/03 06:46:07;;;;;;;28.83;26.20;;;;;;;;;;4976891;28;20241;-79
2024/03/03 06:48:34;;;;;;;28.38;25.70;;;;;;;;;;4977314;28;20624;-81
2024/03/03 06:51:01;;;;;;;28.92;26.52;;;;;;;;;;4976526;28;20223;-78
2024/03/03 06:53:28;;;;;;;28.67;26.27;;;;;;;;;;4976430;28;20235;-79
2024/03/03 06:55:56;;;;;;;30.20;27.50;;;;;;;;;;4976920;28;20202;-79
2024/03/03 06:58:23;;;;;;;29.50;27.10;;;;;;;;;;4976661;28;20437;-78
2024/03/03 07:00:51;;;;;;;29.57;26.97;;;;;;;;;;4976359;28;20206;-79
2024/03/03 07:03:44;;;;;;;30.43;27.40;;;;;;;;;;4985164;28;20449;-79
2024/03/03 07:06:11;;;;;;;27.85;25.45;;;;;;;;;;4977038;28;20898;-81
2024/03/03 07:08:38;;;;;;;26.63;24.35;;;;;;;;;;4961611;28;20239;-79
2024/03/03 07:11:06;;;;;;;25.80;23.60;;;;;;;;;;4956874;29;20235;-79
2024/03/03 07:13:33;;;;;;;28.88;25.95;;;;;;;;;;4970811;28;20749;-80
2024/03/03 07:16:00;;;;;;;31.63;28.52;;;;;;;;;;4957266;29;20207;-83
2024/03/03 07:18:27;;;;;;;30.63;27.98;;;;;;;;;;4957307;29;20263;-79
2024/03/03 07:20:54;;;;;;;31.40;28.60;;;;;;;;;;4956528;29;20211;-79
2024/03/03 07:23:21;;;;;;;27.17;24.85;;;;;;;;;;4956437;28;20223;-79
2024/03/03 07:25:48;;;;;;;31.00;28.00;;;;;;;;;;4957512;29;20235;-80
2024/03/03 07:28:16;;;;;;;30.38;27.55;;;;;;;;;;4957200;29;20936;-81
2024/03/03 07:30:43;;;;;;;30.17;27.60;;;;;;;;;;4956983;29;20227;-79
2024/03/03 07:33:10;;;;;;;31.05;28.27;;;;;;;;;;4957704;28;20534;-80
2024/03/03 07:35:37;;;;;;;29.67;27.17;;;;;;;;;;4957592;29;20199;-79
2024/03/03 07:38:04;;;;;;;30.73;27.93;;;;;;;;;;4969138;29;21011;-80
2024/03/03 07:40:36;;;;;;;31.35;28.60;;;;;;;;;;4968263;29;20479;-80
2024/03/03 07:43:04;;;;;;;30.10;27.40;;;;;;;;;;4970289;28;20319;-80
2024/03/03 07:45:32;;;;;;;31.17;28.20;;;;;;;;;;4958592;28;20487;-80
2024/03/03 07:47:59;;;;;;;31.67;29.00;;;;;;;;;;4958015;29;20439;-79
2024/03/03 07:50:26;;;;;;;28.50;25.90;;;;;;;;;;4965385;28;20482;-80
2024/03/03 07:52:53;;;;;;;28.07;25.73;;;;;;;;;;4976174;28;20807;-81
2024/03/03 07:55:20;;;;;;;23.97;22.00;;;;;;;;;;4976571;28;20454;-80
2024/03/03 07:57:47;;;;;;;24.27;22.47;;;;;;;;;;4976941;28;20478;-85
2024/03/03 08:00:15;;;;;;;23.83;22.00;;;;;;;;;;4976319;28;20478;-81
2024/03/03 08:02:43;;;;;;;25.13;23.20;;;;;;;;;;4970303;28;20961;-78
2024/03/03 08:05:11;;;;;;;25.70;23.70;;;;;;;;;;4976760;28;20482;-80
2024/03/03 08:07:38;;;;;;;26.20;24.20;;;;;;;;;;4986695;28;20554;-80
2024/03/03 08:10:05;;;;;;;26.90;24.83;;;;;;;;;;4973507;28;20532;-81
2024/03/03 08:12:32;;;;;;;25.93;24.03;;;;;;;;;;4958296;28;20550;-79
2024/03/03 08:15:00;;;;;;;23.50;21.70;;;;;;;;;;4958107;28;20463;-81
2024/03/03 08:17:27;;;;;;;24.30;22.23;;;;;;;;;;4968371;28;20458;-79
2024/03/03 08:19:55;;;;;;;23.90;22.10;;;;;;;;;;4966842;28;20455;-81
2024/03/03 08:22:22;;;;;;;23.70;21.80;;;;;;;;;;4956847;29;20443;-80
2024/03/03 08:24:49;;;;;;;22.90;21.27;;;;;;;;;;4959054;28;20513;-81
2024/03/03 08:27:16;;;;;;;23.87;22.17;;;;;;;;;;4960698;28;20506;-82
2024/03/03 08:29:43;;;;;;;25.70;23.80;;;;;;;;;;4957470;28;20447;-80
2024/03/03 08:32:10;;;;;;;25.10;23.10;;;;;;;;;;4970778;28;20480;-79
2024/03/03 08:34:37;;;;;;;23.90;22.00;;;;;;;;;;4974150;28;21105;-80
2024/03/03 08:37:06;;;;;;;23.17;21.47;;;;;;;;;;4974332;28;20482;-79
2024/03/03 08:39:33;;;;;;;25.20;23.30;;;;;;;;;;4962128;28;20498;-80
2024/03/03 08:42:00;;;;;;;22.97;21.10;;;;;;;;;;4965566;28;20490;-81
2024/03/03 08:44:27;;;;;;;22.70;20.93;;;;;;;;;;4960471;28;20494;-81
2024/03/03 08:46:54;;;;;;;24.37;22.57;;;;;;;;;;4960707;29;20956;-80
2024/03/03 08:49:21;;;;;;;25.17;23.20;;;;;;;;;;4960767;29;20443;-81
2024/03/03 08:51:49;;;;;;;23.57;21.67;;;;;;;;;;4960640;29;20494;-81
2024/03/03 08:54:18;;;;;;;24.30;22.33;;;;;;;;;;4960296;28;21006;-79
2024/03/03 08:56:45;;;;;;;25.67;23.77;;;;;;;;;;4960868;29;20465;-80
2024/03/03 08:59:12;;;;;;;22.63;21.03;;;;;;;;;;4960487;29;20459;-79
2024/03/03 09:01:39;;;;;;;23.17;21.47;;;;;;;;;;4959763;29;20447;-80
2024/03/03 09:04:07;;;;;;;24.37;22.57;;;;;;;;;;4960641;28;20503;-81
2024/03/03 09:06:34;;;;;;;25.00;22.90;;;;;;;;;;4960649;29;20439;-80
2024/03/03 09:09:01;;;;;;;26.37;24.20;;;;;;;;;;4960678;29;20542;-80
2024/03/03 09:11:32;;;;;;;27.77;25.57;;;;;;;;;;4959170;29;20542;-81
2024/03/03 09:14:00;;;;;;;28.60;26.20;;;;;;;;;;4960183;28;20460;-80
2024/03/03 09:16:27;;;;;;;27.47;25.37;;;;;;;;;;4960073;29;20483;-79
2024/03/03 09:18:54;;;;;;;27.67;25.57;;;;;;;;;;4965645;28;20935;-81
2024/03/03 09:21:22;;;;;;;26.03;23.83;;;;;;;;;;4965747;28;20534;-81
2024/03/03 09:23:50;;;;;;;26.43;24.43;;;;;;;;;;4959780;28;20523;-79
2024/03/03 09:26:17;;;;;;;27.90;25.40;;;;;;;;;;4959876;29;20450;-79
2024/03/03 09:28:46;;;;;;;26.90;24.80;;;;;;;;;;4970429;28;20478;-79
2024/03/03 09:31:13;;;;;;;25.80;23.70;;;;;;;;;;4978347;28;20561;-80
2024/03/03 09:33:40;;;;;;;25.93;23.70;;;;;;;;;;4972789;28;20530;-79
2024/03/03 09:36:07;;;;;;;26.60;24.60;;;;;;;;;;4960367;28;20460;-79
2024/03/03 09:38:34;;;;;;;27.00;24.60;;;;;;;;;;4971895;28;21203;-80
2024/03/03 09:41:02;;;;;;;25.10;22.90;;;;;;;;;;4997554;28;20477;-81
2024/03/03 09:43:31;;;;;;;24.30;22.47;;;;;;;;;;4996893;28;20476;-91
2024/03/03 09:46:00;;;;;;;25.50;23.40;;;;;;;;;;4996608;28;20512;-82
2024/03/03 09:48:28;;;;;;;25.00;23.00;;;;;;;;;;4994423;28;20428;-81
2024/03/03 09:50:58;;;;;;;25.20;23.13;;;;;;;;;;4978573;28;20826;-82
2024/03/03 09:53:33;;;;;;;24.83;22.87;;;;;;;;;;4994582;28;20500;-79
2024/03/03 09:56:01;;;;;;;23.40;21.63;;;;;;;;;;4997375;28;21229;-78
2024/03/03 09:58:28;;;;;;;25.57;23.77;;;;;;;;;;4996748;28;20454;-80
2024/03/03 10:00:56;;;;;;;26.37;24.17;;;;;;;;;;4996318;28;20458;-79
2024/03/03 10:03:25;;;;;;;26.13;23.93;;;;;;;;;;4997147;28;20477;-78
2024/03/03 10:05:55;;;;;;;23.60;21.90;;;;;;;;;;4996972;28;20454;-79
2024/03/03 10:08:24;;;;;;;24.67;22.97;;;;;;;;;;4996999;28;20563;-80
2024/03/03 10:10:55;;;;;;;22.20;20.60;;;;;;;;;;4996523;28;20511;-78
2024/03/03 10:13:22;;;;;;;24.33;22.43;;;;;;;;;;4992384;28;20532;-80
2024/03/03 10:15:50;;;;;;;23.13;21.53;;;;;;;;;;4977248;28;20509;-82
2024/03/03 10:18:19;;;;;;;25.87;23.87;;;;;;;;;;4977085;28;20482;-80
2024/03/03 10:20:50;;;;;;;24.53;22.57;;;;;;;;;;4976913;28;20896;-79
2024/03/03 10:23:24;;;;;;;24.97;23.07;;;;;;;;;;4976327;28;20466;-79
2024/03/03 10:25:56;;;;;;;25.90;23.30;;;;;;;;;;4977298;28;20882;-79
2024/03/03 10:28:23;;;;;;;24.40;22.80;;;;;;;;;;4977707;28;20454;-81
2024/03/03 10:30:51;;;;;;;24.73;22.90;;;;;;;;;;4977275;28;20496;-80
2024/03/03 10:33:19;;;;;;;24.90;23.00;;;;;;;;;;4976969;28;20463;-78
2024/03/03 10:36:08;;;;;;;25.27;23.07;;;;;;;;;;4977018;28;20485;-78
2024/03/03 10:38:35;;;;;;;27.20;25.17;;;;;;;;;;4976755;28;20431;-81
2024/03/03 10:41:03;;;;;;;26.67;24.60;;;;;;;;;;4978136;28;20532;-81
2024/03/03 10:43:30;;;;;;;27.10;24.80;;;;;;;;;;4972683;28;20480;-79
2024/03/03 10:45:57;;;;;;;26.30;24.40;;;;;;;;;;4979334;28;20484;-79
2024/03/03 10:48:24;;;;;;;26.40;24.60;;;;;;;;;;4991456;28;20457;-80
2024/03/03 10:50:53;;;;;;;27.07;24.90;;;;;;;;;;5003038;28;20481;-82
2024/03/03 10:53:23;;;;;;;27.37;25.33;;;;;;;;;;4999017;28;20470;-80
2024/03/03 10:55:51;;;;;;;27.10;25.10;;;;;;;;;;5000824;28;20496;-80
2024/03/03 10:58:21;;;;;;;28.07;25.87;;;;;;;;;;4982944;28;20853;-80
2024/03/03 11:00:49;;;;;;;27.97;25.77;;;;;;;;;;4995934;28;20548;-78
2024/03/03 11:03:17;;;;;;;28.37;25.80;;;;;;;;;;4984837;28;20477;-81
2024/03/03 11:05:44;;;;;;;30.17;27.67;;;;;;;;;;4983671;28;20473;-80
2024/03/03 11:08:15;;;;;;;28.57;26.37;;;;;;;;;;4984747;28;20462;-81
2024/03/03 11:10:43;;;;;;;28.63;26.33;;;;;;;;;;4987394;28;20459;-80
2024/03/03 11:13:12;;;;;;;28.40;26.00;;;;;;;;;;4988898;28;20517;-81
2024/03/03 11:15:40;;;;;;;29.77;27.27;;;;;;;;;;4988299;28;20462;-79
2024/03/03 11:18:10;;;;;;;29.67;27.37;;;;;;;;;;4989175;28;20454;-82
2024/03/03 11:20:40;;;;;;;29.97;27.43;;;;;;;;;;4988835;28;21000;-81
2024/03/03 11:23:11;;;;;;;28.93;26.60;;;;;;;;;;4987742;28;20421;-80
2024/03/03 11:25:43;;;;;;;31.77;29.27;;;;;;;;;;4998958;28;20461;-80
2024/03/03 11:28:12;;;;;;;29.33;27.10;;;;;;;;;;5009251;28;20460;-80
2024/03/03 11:30:39;;;;;;;29.20;27.00;;;;;;;;;;5002004;28;20846;-80
2024/03/03 11:33:06;;;;;;;28.00;25.90;;;;;;;;;;4996709;28;21088;-80
2024/03/03 11:35:33;;;;;;;27.90;25.70;;;;;;;;;;4997287;28;20450;-80
2024/03/03 11:38:00;;;;;;;28.80;26.30;;;;;;;;;;4986450;28;20486;-79
2024/03/03 11:40:28;;;;;;;28.23;25.97;;;;;;;;;;4977281;28;20998;-81
2024/03/03 11:42:57;;;;;;;29.17;26.77;;;;;;;;;;4976211;28;20477;-81
2024/03/03 11:45:39;;;;;;;29.37;26.97;;;;;;;;;;4977148;28;21013;-80
2024/03/03 11:48:06;;;;;;;30.93;28.33;;;;;;;;;;4976312;28;20454;-81
2024/03/03 11:50:33;;;;;;;29.13;26.90;;;;;;;;;;4975855;28;20942;-83
2024/03/03 11:53:00;;;;;;;30.10;27.70;;;;;;;;;;4975236;28;20506;-79
2024/03/03 11:55:29;;;;;;;30.50;28.00;;;;;;;;;;4975815;28;20478;-80
2024/03/03 11:57:58;;;;;;;31.63;29.03;;;;;;;;;;4986536;28;20448;-79
2024/03/03 12:00:27;;;;;;;29.43;27.20;;;;;;;;;;4995923;28;20662;-80
2024/03/03 12:02:55;;;;;;;31.33;28.93;;;;;;;;;;4992249;28;20547;-81
2024/03/03 12:05:22;;;;;;;29.80;27.43;;;;;;;;;;4972158;28;20474;-78
2024/03/03 12:07:50;;;;;;;29.80;27.47;;;;;;;;;;4974340;28;20442;-79
2024/03/03 12:10:17;;;;;;;32.03;29.63;;;;;;;;;;4976748;28;20505;-79
2024/03/03 12:12:49;;;;;;;29.77;27.37;;;;;;;;;;4977981;28;20548;-79
2024/03/03 12:15:18;;;;;;;30.47;27.87;;;;;;;;;;4968600;28;20497;-80
2024/03/03 12:17:50;;;;;;;31.60;29.10;;;;;;;;;;4999380;28;20461;-80
2024/03/03 12:20:18;;;;;;;30.37;28.07;;;;;;;;;;4981497;28;20541;-80
2024/03/03 12:22:45;;;;;;;31.30;28.60;;;;;;;;;;4993229;28;20449;-81
2024/03/03 12:25:14;;;;;;;30.60;28.20;;;;;;;;;;4999749;28;20826;-80
2024/03/03 12:27:47;;;;;;;29.83;27.63;;;;;;;;;;4999125;28;20483;-79
2024/03/03 12:30:18;;;;;;;28.17;26.13;;;;;;;;;;4999221;28;20929;-80
2024/03/03 12:32:46;;;;;;;29.40;26.80;;;;;;;;;;4998202;28;21027;-81
2024/03/03 12:35:14;;;;;;;29.37;26.97;;;;;;;;;;4999700;28;20473;-79
2024/03/03 12:37:41;;;;;;;28.77;26.30;;;;;;;;;;4998811;28;20492;-80
2024/03/03 12:40:09;;;;;;;30.90;28.50;;;;;;;;;;4999612;28;20453;-79
2024/03/03 12:42:37;;;;;;;29.37;26.80;;;;;;;;;;4993010;28;20548;-80
2024/03/03 12:45:05;;;;;;;29.73;27.33;;;;;;;;;;4992995;28;20533;-80
2024/03/03 12:47:33;;;;;;;28.97;26.40;;;;;;;;;;4999238;28;20453;-80
2024/03/03 12:50:03;;;;;;;28.70;26.50;;;;;;;;;;4998875;28;20452;-81
2024/03/03 12:52:35;;;;;;;30.40;28.00;;;;;;;;;;4978779;28;20564;-80
2024/03/03 12:55:03;;;;;;;27.90;25.70;;;;;;;;;;4979420;28;20853;-79
2024/03/03 12:57:30;;;;;;;28.70;26.30;;;;;;;;;;4979493;28;20454;-81
2024/03/03 12:59:59;;;;;;;28.40;26.43;;;;;;;;;;4974547;28;20489;-79
2024/03/03 13:02:26;;;;;;;28.10;26.00;;;;;;;;;;4979867;28;20458;-82
2024/03/03 13:04:55;;;;;;;28.83;26.83;;;;;;;;;;4975421;28;20482;-80
2024/03/03 13:07:25;;;;;;;28.10;25.80;;;;;;;;;;4974324;28;20454;-80
2024/03/03 13:09:54;;;;;;;28.27;26.00;;;;;;;;;;4982627;28;20459;-79
2024/03/03 13:12:22;;;;;;;27.77;25.43;;;;;;;;;;4977922;28;20482;-80
2024/03/03 13:14:55;;;;;;;28.60;26.50;;;;;;;;;;4978976;28;20481;-81
2024/03/03 13:17:24;;;;;;;27.90;25.63;;;;;;;;;;4977498;28;20491;-80
2024/03/03 13:19:54;;;;;;;28.27;26.03;;;;;;;;;;4978886;28;20462;-79
2024/03/03 13:22:43;;;;;;;29.07;26.90;;;;;;;;;;4962489;28;20522;-79
2024/03/03 13:25:16;;;;;;;29.37;26.80;;;;;;;;;;4959348;28;20538;-80
2024/03/03 13:27:46;;;;;;;28.27;25.93;;;;;;;;;;4959288;29;20900;-79
2024/03/03 13:30:14;;;;;;;37.43;34.13;;;;;;;;;;4963791;28;20462;-81
2024/03/03 13:32:45;;;;;;;30.47;27.90;;;;;;;;;;4976394;28;20505;-80
2024/03/03 13:35:14;;;;;;;28.83;26.63;;;;;;;;;;4978320;28;20449;-81
2024/03/03 13:37:41;;;;;;;28.73;26.47;;;;;;;;;;4981019;28;20453;-80
2024/03/03 13:40:09;;;;;;;30.03;27.53;;;;;;;;;;4998329;28;20450;-80
2024/03/03 13:42:38;;;;;;;29.10;26.83;;;;;;;;;;4997963;28;20455;-80
2024/03/03 13:45:05;;;;;;;28.00;25.90;;;;;;;;;;4998349;28;20512;-80
2024/03/03 13:47:32;;;;;;;29.87;27.30;;;;;;;;;;4971240;28;20534;-80
2024/03/03 13:50:00;;;;;;;31.67;28.90;;;;;;;;;;4959249;29;20455;-79
2024/03/03 13:52:27;;;;;;;28.27;26.10;;;;;;;;;;4958835;29;20491;-81
2024/03/03 13:54:59;;;;;;;28.53;26.23;;;;;;;;;;4959235;28;20505;-80
2024/03/03 13:57:26;;;;;;;26.90;24.70;;;;;;;;;;4958733;29;20486;-81
2024/03/03 13:59:54;;;;;;;29.83;27.07;;;;;;;;;;4963837;28;20536;-81
2024/03/03 14:02:21;;;;;;;30.50;27.97;;;;;;;;;;4990330;28;20424;-80
2024/03/03 14:04:48;;;;;;;25.10;23.20;;;;;;;;;;4987256;28;20573;-80
2024/03/03 14:07:15;;;;;;;28.73;26.63;;;;;;;;;;4978325;28;20503;-79
2024/03/03 14:09:42;;;;;;;25.57;23.67;;;;;;;;;;4986379;28;20449;-82
2024/03/03 14:12:09;;;;;;;27.17;25.17;;;;;;;;;;4996761;28;20993;-81
2024/03/03 14:14:36;;;;;;;26.27;24.27;;;;;;;;;;4987824;28;20437;-80
2024/03/03 14:17:05;;;;;;;29.63;26.83;;;;;;;;;;4977350;28;20482;-80
2024/03/03 14:19:32;;;;;;;28.83;26.63;;;;;;;;;;4986666;28;20462;-80
2024/03/03 14:21:59;;;;;;;28.43;26.23;;;;;;;;;;4977054;28;20450;-80
2024/03/03 14:24:26;;;;;;;27.80;25.80;;;;;;;;;;4958775;28;21290;-81